sensor_id;sensor_type;location;lat;lon;timestamp;pressure;altitude;pressure_sealevel;temperature;humidity
45050;BME280;61798;48.048;-1.928;2023-02-28T00:01:32;101914.50;;;-0.95;100.00
45050;BME280;61798;48.048;-1.928;2023-02-28T00:03:38;101871.69;;;-1.31;100.00
45050;BME280;61798;48.048;-1.928;2023-02-28T00:05:44;101913.81;;;-0.99;100.00
45050;BME280;61798;48.048;-1.928;2023-02-28T00:07:51;101926.38;;;-0.71;100.00
45050;BME280;61798;48.048;-1.928;2023-02-28T00:09:57;101920.34;;;-0.73;100.00
45050;BME280;61798;48.048;-1.928;2023-02-28T00:12:03;101889.56;;;-1.04;100.00
45050;BME280;61798;48.048;-1.928;2023-02-28T00:14:15;101888.53;;;-1.18;100.00
45050;BME280;61798;48.048;-1.928;2023-02-28T00:16:22;101888.88;;;-1.08;100.00
45050;BME280;61798;48.048;-1.928;2023-02-28T00:18:28;101927.22;;;-0.71;100.00
45050;BME280;61798;48.048;-1.928;2023-02-28T00:20:34;101924.59;;;-0.87;100.00
45050;BME280;61798;48.048;-1.928;2023-02-28T00:22:48;101923.34;;;-0.96;100.00
45050;BME280;61798;48.048;-1.928;2023-02-28T00:24:55;101922.06;;;-1.05;100.00
45050;BME280;61798;48.048;-1.928;2023-02-28T00:27:01;101902.19;;;-0.94;100.00
45050;BME280;61798;48.048;-1.928;2023-02-28T00:29:07;101920.97;;;-1.01;100.00
45050;BME280;61798;48.048;-1.928;2023-02-28T00:31:13;101919.84;;;-0.64;100.00
45050;BME280;61798;48.048;-1.928;2023-02-28T00:33:19;101899.38;;;-0.91;100.00
45050;BME280;61798;48.048;-1.928;2023-02-28T00:35:25;101919.09;;;-0.82;100.00
45050;BME280;61798;48.048;-1.928;2023-02-28T00:37:31;101894.22;;;-1.09;100.00
45050;BME280;61798;48.048;-1.928;2023-02-28T00:39:37;101918.91;;;-1.12;100.00
45050;BME280;61798;48.048;-1.928;2023-02-28T00:41:43;101912.38;;;-0.88;100.00
45050;BME280;61798;48.048;-1.928;2023-02-28T00:43:49;101914.75;;;-1.16;100.00
45050;BME280;61798;48.048;-1.928;2023-02-28T00:45:56;101894.13;;;-1.24;100.00
45050;BME280;61798;48.048;-1.928;2023-02-28T00:48:02;101907.81;;;-1.01;100.00
45050;BME280;61798;48.048;-1.928;2023-02-28T00:50:09;101898.53;;;-1.24;100.00
45050;BME280;61798;48.048;-1.928;2023-02-28T00:52:15;101892.75;;;-1.15;100.00
45050;BME280;61798;48.048;-1.928;2023-02-28T00:54:22;101925.44;;;-1.03;100.00
45050;BME280;61798;48.048;-1.928;2023-02-28T00:56:28;101916.97;;;-1.08;100.00
45050;BME280;61798;48.048;-1.928;2023-02-28T00:58:34;101922.66;;;-1.00;100.00
45050;BME280;61798;48.048;-1.928;2023-02-28T01:00:40;101906.88;;;-1.00;100.00
45050;BME280;61798;48.048;-1.928;2023-02-28T01:02:46;101903.97;;;-1.11;100.00
45050;BME280;61798;48.048;-1.928;2023-02-28T01:04:52;101916.59;;;-1.18;100.00
45050;BME280;61798;48.048;-1.928;2023-02-28T01:06:58;101889.44;;;-1.35;100.00
45050;BME280;61798;48.048;-1.928;2023-02-28T01:09:05;101908.66;;;-1.17;100.00
45050;BME280;61798;48.048;-1.928;2023-02-28T01:11:13;101913.38;;;-1.23;100.00
45050;BME280;61798;48.048;-1.928;2023-02-28T01:13:20;101912.84;;;-1.30;100.00
45050;BME280;61798;48.048;-1.928;2023-02-28T01:15:26;101886.28;;;-1.42;100.00
45050;BME280;61798;48.048;-1.928;2023-02-28T01:17:32;101917.81;;;-1.24;100.00
45050;BME280;61798;48.048;-1.928;2023-02-28T01:19:38;101905.84;;;-0.97;100.00
45050;BME280;61798;48.048;-1.928;2023-02-28T01:21:44;101919.50;;;-1.07;100.00
45050;BME280;61798;48.048;-1.928;2023-02-28T01:23:51;101930.28;;;-0.95;100.00
45050;BME280;61798;48.048;-1.928;2023-02-28T01:25:56;101925.81;;;-0.93;100.00
45050;BME280;61798;48.048;-1.928;2023-02-28T01:28:03;101916.72;;;-1.20;100.00
45050;BME280;61798;48.048;-1.928;2023-02-28T01:30:09;101931.28;;;-1.14;100.00
45050;BME280;61798;48.048;-1.928;2023-02-28T01:32:15;101902.06;;;-1.42;100.00
45050;BME280;61798;48.048;-1.928;2023-02-28T01:34:21;101931.31;;;-0.98;100.00
45050;BME280;61798;48.048;-1.928;2023-02-28T01:36:27;101903.56;;;-1.20;100.00
45050;BME280;61798;48.048;-1.928;2023-02-28T01:38:33;101915.34;;;-1.11;100.00
45050;BME280;61798;48.048;-1.928;2023-02-28T01:40:39;101939.13;;;-0.96;100.00
45050;BME280;61798;48.048;-1.928;2023-02-28T01:42:45;101901.75;;;-1.35;100.00
45050;BME280;61798;48.048;-1.928;2023-02-28T01:44:58;101929.72;;;-1.34;100.00
45050;BME280;61798;48.048;-1.928;2023-02-28T01:47:05;101934.75;;;-1.30;100.00
45050;BME280;61798;48.048;-1.928;2023-02-28T01:49:13;101886.25;;;-1.58;100.00
45050;BME280;61798;48.048;-1.928;2023-02-28T01:51:27;101935.00;;;-1.34;100.00
45050;BME280;61798;48.048;-1.928;2023-02-28T01:53:47;101929.06;;;-1.22;100.00
45050;BME280;61798;48.048;-1.928;2023-02-28T01:55:55;101941.88;;;-1.32;100.00
45050;BME280;61798;48.048;-1.928;2023-02-28T01:58:04;101928.81;;;-1.33;100.00
45050;BME280;61798;48.048;-1.928;2023-02-28T02:00:14;101937.97;;;-1.41;100.00
45050;BME280;61798;48.048;-1.928;2023-02-28T02:02:22;101944.59;;;-1.33;100.00
45050;BME280;61798;48.048;-1.928;2023-02-28T02:04:36;101941.63;;;-1.27;100.00
45050;BME280;61798;48.048;-1.928;2023-02-28T02:06:46;101932.47;;;-1.36;100.00
45050;BME280;61798;48.048;-1.928;2023-02-28T02:08:53;101888.75;;;-1.39;100.00
45050;BME280;61798;48.048;-1.928;2023-02-28T02:11:00;101944.41;;;-1.30;100.00
45050;BME280;61798;48.048;-1.928;2023-02-28T02:18:31;101931.59;;;-1.36;100.00
45050;BME280;61798;48.048;-1.928;2023-02-28T02:36:04;101940.38;;;-1.20;100.00
45050;BME280;61798;48.048;-1.928;2023-02-28T02:40:58;101948.53;;;-1.24;100.00
45050;BME280;61798;48.048;-1.928;2023-02-28T02:45:49;101926.25;;;-1.35;100.00
45050;BME280;61798;48.048;-1.928;2023-02-28T02:47:59;101932.91;;;-1.28;100.00
45050;BME280;61798;48.048;-1.928;2023-02-28T02:50:08;101941.72;;;-1.29;100.00
45050;BME280;61798;48.048;-1.928;2023-02-28T02:52:22;101929.06;;;-1.38;100.00
45050;BME280;61798;48.048;-1.928;2023-02-28T02:54:32;101943.66;;;-1.32;100.00
45050;BME280;61798;48.048;-1.928;2023-02-28T02:56:42;101935.50;;;-1.44;100.00
45050;BME280;61798;48.048;-1.928;2023-02-28T02:58:50;101943.22;;;-1.41;100.00
45050;BME280;61798;48.048;-1.928;2023-02-28T03:01:00;101910.19;;;-1.46;100.00
45050;BME280;61798;48.048;-1.928;2023-02-28T03:03:08;101939.44;;;-1.19;100.00
45050;BME280;61798;48.048;-1.928;2023-02-28T03:05:20;101872.09;;;-1.72;100.00
45050;BME280;61798;48.048;-1.928;2023-02-28T03:07:28;101908.53;;;-1.65;100.00
45050;BME280;61798;48.048;-1.928;2023-02-28T03:09:35;101905.91;;;-1.65;100.00
45050;BME280;61798;48.048;-1.928;2023-02-28T03:11:44;101924.19;;;-1.46;100.00
45050;BME280;61798;48.048;-1.928;2023-02-28T03:14:19;101944.19;;;-1.25;100.00
45050;BME280;61798;48.048;-1.928;2023-02-28T03:23:46;101941.38;;;-1.22;100.00
45050;BME280;61798;48.048;-1.928;2023-02-28T03:26:11;101923.28;;;-1.45;100.00
45050;BME280;61798;48.048;-1.928;2023-02-28T03:28:36;101935.91;;;-1.70;100.00
45050;BME280;61798;48.048;-1.928;2023-02-28T03:31:07;101932.81;;;-1.60;100.00
45050;BME280;61798;48.048;-1.928;2023-02-28T03:36:04;101936.38;;;-1.61;100.00
45050;BME280;61798;48.048;-1.928;2023-02-28T03:40:28;101939.41;;;-1.69;100.00
45050;BME280;61798;48.048;-1.928;2023-02-28T03:42:38;101938.78;;;-1.74;100.00
45050;BME280;61798;48.048;-1.928;2023-02-28T03:44:49;101902.78;;;-1.72;100.00
45050;BME280;61798;48.048;-1.928;2023-02-28T03:47:10;101934.91;;;-1.67;100.00
45050;BME280;61798;48.048;-1.928;2023-02-28T03:49:27;101931.69;;;-1.72;100.00
45050;BME280;61798;48.048;-1.928;2023-02-28T03:51:38;101897.84;;;-1.96;100.00
45050;BME280;61798;48.048;-1.928;2023-02-28T03:53:50;101937.22;;;-1.78;100.00
45050;BME280;61798;48.048;-1.928;2023-02-28T03:56:03;101918.94;;;-1.98;100.00
45050;BME280;61798;48.048;-1.928;2023-02-28T03:58:45;101914.38;;;-1.94;100.00
45050;BME280;61798;48.048;-1.928;2023-02-28T04:01:07;101892.66;;;-1.98;100.00
45050;BME280;61798;48.048;-1.928;2023-02-28T04:03:14;101918.38;;;-1.87;100.00
45050;BME280;61798;48.048;-1.928;2023-02-28T04:05:21;101922.72;;;-1.68;100.00
45050;BME280;61798;48.048;-1.928;2023-02-28T04:07:32;101932.38;;;-1.68;100.00
45050;BME280;61798;48.048;-1.928;2023-02-28T04:09:38;101942.03;;;-1.69;100.00
45050;BME280;61798;48.048;-1.928;2023-02-28T04:11:51;101938.03;;;-1.94;100.00
45050;BME280;61798;48.048;-1.928;2023-02-28T04:13:57;101927.06;;;-2.20;100.00
45050;BME280;61798;48.048;-1.928;2023-02-28T04:16:07;101924.66;;;-2.43;100.00
45050;BME280;61798;48.048;-1.928;2023-02-28T04:18:17;101921.88;;;-2.40;100.00
45050;BME280;61798;48.048;-1.928;2023-02-28T04:20:23;101919.72;;;-2.31;100.00
45050;BME280;61798;48.048;-1.928;2023-02-28T04:22:29;101954.72;;;-2.13;100.00
45050;BME280;61798;48.048;-1.928;2023-02-28T04:24:36;101928.13;;;-2.25;100.00
45050;BME280;61798;48.048;-1.928;2023-02-28T04:26:44;101942.56;;;-2.34;100.00
45050;BME280;61798;48.048;-1.928;2023-02-28T04:28:51;101938.84;;;-2.29;100.00
45050;BME280;61798;48.048;-1.928;2023-02-28T04:31:02;101941.34;;;-2.08;100.00
45050;BME280;61798;48.048;-1.928;2023-02-28T04:33:09;101941.69;;;-2.34;100.00
45050;BME280;61798;48.048;-1.928;2023-02-28T04:35:15;101940.59;;;-1.93;100.00
45050;BME280;61798;48.048;-1.928;2023-02-28T04:37:21;101940.88;;;-1.99;100.00
45050;BME280;61798;48.048;-1.928;2023-02-28T04:39:36;101951.78;;;-2.25;100.00
45050;BME280;61798;48.048;-1.928;2023-02-28T04:41:42;101930.50;;;-2.38;100.00
45050;BME280;61798;48.048;-1.928;2023-02-28T04:43:48;101967.03;;;-2.33;100.00
45050;BME280;61798;48.048;-1.928;2023-02-28T04:45:56;101957.94;;;-2.26;100.00
45050;BME280;61798;48.048;-1.928;2023-02-28T04:48:02;101940.88;;;-1.99;100.00
45050;BME280;61798;48.048;-1.928;2023-02-28T04:50:09;101942.97;;;-2.06;100.00
45050;BME280;61798;48.048;-1.928;2023-02-28T04:52:15;101957.66;;;-2.02;100.00
45050;BME280;61798;48.048;-1.928;2023-02-28T04:54:21;101960.28;;;-2.19;100.00
45050;BME280;61798;48.048;-1.928;2023-02-28T04:56:27;101937.25;;;-1.96;100.00
45050;BME280;61798;48.048;-1.928;2023-02-28T04:58:34;101924.88;;;-2.30;100.00
45050;BME280;61798;48.048;-1.928;2023-02-28T05:00:40;101958.94;;;-2.10;100.00
45050;BME280;61798;48.048;-1.928;2023-02-28T05:02:46;101948.22;;;-2.24;100.00
45050;BME280;61798;48.048;-1.928;2023-02-28T05:04:53;101945.34;;;-2.19;100.00
45050;BME280;61798;48.048;-1.928;2023-02-28T05:06:59;101931.06;;;-2.31;100.00
45050;BME280;61798;48.048;-1.928;2023-02-28T05:09:05;101953.25;;;-2.01;100.00
45050;BME280;61798;48.048;-1.928;2023-02-28T05:13:25;101953.22;;;-2.19;100.00
45050;BME280;61798;48.048;-1.928;2023-02-28T05:15:32;101972.72;;;-2.42;100.00
45050;BME280;61798;48.048;-1.928;2023-02-28T05:17:41;101968.75;;;-2.14;100.00
45050;BME280;61798;48.048;-1.928;2023-02-28T05:19:47;102000.47;;;-2.37;100.00
45050;BME280;61798;48.048;-1.928;2023-02-28T05:21:54;101989.09;;;-2.55;100.00
45050;BME280;61798;48.048;-1.928;2023-02-28T05:24:07;102001.75;;;-2.46;100.00
45050;BME280;61798;48.048;-1.928;2023-02-28T05:26:14;102000.28;;;-2.51;100.00
45050;BME280;61798;48.048;-1.928;2023-02-28T05:28:20;101985.63;;;-2.75;100.00
45050;BME280;61798;48.048;-1.928;2023-02-28T05:30:26;102000.63;;;-2.40;100.00
45050;BME280;61798;48.048;-1.928;2023-02-28T05:32:33;101999.78;;;-2.40;100.00
45050;BME280;61798;48.048;-1.928;2023-02-28T05:34:39;102007.44;;;-2.36;100.00
45050;BME280;61798;48.048;-1.928;2023-02-28T05:36:45;101982.41;;;-2.62;100.00
45050;BME280;61798;48.048;-1.928;2023-02-28T05:38:52;102010.00;;;-2.53;100.00
45050;BME280;61798;48.048;-1.928;2023-02-28T05:40:58;102003.31;;;-2.41;100.00
45050;BME280;61798;48.048;-1.928;2023-02-28T05:43:04;102018.00;;;-2.37;100.00
45050;BME280;61798;48.048;-1.928;2023-02-28T05:45:10;102009.88;;;-2.70;100.00
45050;BME280;61798;48.048;-1.928;2023-02-28T05:47:16;102002.69;;;-2.66;100.00
45050;BME280;61798;48.048;-1.928;2023-02-28T05:49:22;102016.28;;;-2.38;100.00
45050;BME280;61798;48.048;-1.928;2023-02-28T05:51:29;102014.97;;;-2.47;100.00
45050;BME280;61798;48.048;-1.928;2023-02-28T05:53:35;102026.81;;;-2.77;100.00
45050;BME280;61798;48.048;-1.928;2023-02-28T05:55:41;101999.50;;;-2.92;100.00
45050;BME280;61798;48.048;-1.928;2023-02-28T05:57:47;101998.44;;;-3.08;100.00
45050;BME280;61798;48.048;-1.928;2023-02-28T05:59:53;102039.16;;;-2.79;100.00
45050;BME280;61798;48.048;-1.928;2023-02-28T06:01:59;102040.22;;;-2.83;100.00
45050;BME280;61798;48.048;-1.928;2023-02-28T06:04:11;102044.84;;;-2.69;100.00
45050;BME280;61798;48.048;-1.928;2023-02-28T06:06:26;102040.38;;;-2.67;100.00
45050;BME280;61798;48.048;-1.928;2023-02-28T06:08:40;102018.03;;;-2.95;100.00
45050;BME280;61798;48.048;-1.928;2023-02-28T06:10:49;102029.06;;;-2.89;100.00
45050;BME280;61798;48.048;-1.928;2023-02-28T06:13:10;102026.56;;;-2.71;100.00
45050;BME280;61798;48.048;-1.928;2023-02-28T06:15:21;102021.34;;;-2.92;100.00
45050;BME280;61798;48.048;-1.928;2023-02-28T06:17:30;102035.84;;;-2.63;100.00
45050;BME280;61798;48.048;-1.928;2023-02-28T06:19:43;102035.75;;;-2.81;100.00
45050;BME280;61798;48.048;-1.928;2023-02-28T06:21:54;102013.66;;;-3.16;100.00
45050;BME280;61798;48.048;-1.928;2023-02-28T06:24:03;102013.50;;;-3.13;100.00
45050;BME280;61798;48.048;-1.928;2023-02-28T06:26:13;102032.34;;;-2.83;100.00
45050;BME280;61798;48.048;-1.928;2023-02-28T06:28:19;102044.34;;;-2.58;100.00
45050;BME280;61798;48.048;-1.928;2023-02-28T06:30:26;102017.97;;;-2.55;100.00
45050;BME280;61798;48.048;-1.928;2023-02-28T06:32:35;102033.13;;;-2.42;100.00
45050;BME280;61798;48.048;-1.928;2023-02-28T06:34:42;102020.56;;;-2.74;100.00
45050;BME280;61798;48.048;-1.928;2023-02-28T06:36:50;102028.94;;;-2.47;100.00
45050;BME280;61798;48.048;-1.928;2023-02-28T06:38:56;102005.63;;;-2.72;100.00
45050;BME280;61798;48.048;-1.928;2023-02-28T06:41:03;102028.53;;;-2.76;100.00
45050;BME280;61798;48.048;-1.928;2023-02-28T06:43:09;101992.28;;;-2.68;100.00
45050;BME280;61798;48.048;-1.928;2023-02-28T06:45:19;101981.69;;;-3.05;100.00
45050;BME280;61798;48.048;-1.928;2023-02-28T06:47:25;101985.88;;;-2.81;100.00
45050;BME280;61798;48.048;-1.928;2023-02-28T06:49:33;102015.41;;;-2.57;100.00
45050;BME280;61798;48.048;-1.928;2023-02-28T06:51:42;102036.19;;;-2.32;100.00
45050;BME280;61798;48.048;-1.928;2023-02-28T06:53:50;102011.72;;;-2.72;100.00
45050;BME280;61798;48.048;-1.928;2023-02-28T06:55:58;101955.53;;;-3.06;100.00
45050;BME280;61798;48.048;-1.928;2023-02-28T06:58:05;102007.19;;;-2.88;100.00
45050;BME280;61798;48.048;-1.928;2023-02-28T07:00:20;102010.16;;;-2.95;100.00
45050;BME280;61798;48.048;-1.928;2023-02-28T07:02:27;102012.56;;;-2.91;100.00
45050;BME280;61798;48.048;-1.928;2023-02-28T07:04:33;102014.09;;;-2.87;100.00
45050;BME280;61798;48.048;-1.928;2023-02-28T07:06:39;101998.66;;;-2.93;100.00
45050;BME280;61798;48.048;-1.928;2023-02-28T07:08:45;102023.13;;;-2.53;100.00
45050;BME280;61798;48.048;-1.928;2023-02-28T07:10:53;102004.13;;;-2.78;100.00
45050;BME280;61798;48.048;-1.928;2023-02-28T07:13:00;102037.41;;;-2.79;100.00
45050;BME280;61798;48.048;-1.928;2023-02-28T07:15:07;102033.13;;;-2.81;100.00
45050;BME280;61798;48.048;-1.928;2023-02-28T07:17:13;102020.63;;;-2.95;100.00
45050;BME280;61798;48.048;-1.928;2023-02-28T07:19:19;102031.84;;;-2.92;100.00
45050;BME280;61798;48.048;-1.928;2023-02-28T07:21:26;102058.09;;;-2.72;100.00
45050;BME280;61798;48.048;-1.928;2023-02-28T07:23:32;102020.13;;;-3.04;100.00
45050;BME280;61798;48.048;-1.928;2023-02-28T07:25:38;102047.78;;;-2.97;100.00
45050;BME280;61798;48.048;-1.928;2023-02-28T07:27:45;102068.94;;;-2.80;100.00
45050;BME280;61798;48.048;-1.928;2023-02-28T07:29:52;102067.09;;;-2.59;100.00
45050;BME280;61798;48.048;-1.928;2023-02-28T07:31:58;102060.16;;;-2.40;100.00
45050;BME280;61798;48.048;-1.928;2023-02-28T07:34:04;102059.53;;;-2.46;100.00
45050;BME280;61798;48.048;-1.928;2023-02-28T07:36:13;102011.28;;;-2.62;100.00
45050;BME280;61798;48.048;-1.928;2023-02-28T07:38:20;102021.88;;;-2.64;100.00
45050;BME280;61798;48.048;-1.928;2023-02-28T07:40:26;102059.59;;;-2.47;100.00
45050;BME280;61798;48.048;-1.928;2023-02-28T07:42:33;102061.53;;;-2.51;100.00
45050;BME280;61798;48.048;-1.928;2023-02-28T07:44:39;102088.19;;;-2.21;100.00
45050;BME280;61798;48.048;-1.928;2023-02-28T07:46:46;102090.59;;;-2.17;100.00
45050;BME280;61798;48.048;-1.928;2023-02-28T07:48:52;102068.97;;;-2.41;100.00
45050;BME280;61798;48.048;-1.928;2023-02-28T07:51:00;102098.50;;;-2.36;100.00
45050;BME280;61798;48.048;-1.928;2023-02-28T07:53:06;102083.22;;;-2.28;100.00
45050;BME280;61798;48.048;-1.928;2023-02-28T07:55:15;102079.03;;;-2.32;100.00
45050;BME280;61798;48.048;-1.928;2023-02-28T07:57:25;102100.09;;;-2.14;100.00
45050;BME280;61798;48.048;-1.928;2023-02-28T07:59:32;102096.91;;;-2.02;100.00
45050;BME280;61798;48.048;-1.928;2023-02-28T08:01:39;102095.69;;;-2.14;100.00
45050;BME280;61798;48.048;-1.928;2023-02-28T08:03:51;102086.13;;;-2.15;100.00
45050;BME280;61798;48.048;-1.928;2023-02-28T08:05:58;102086.34;;;-2.19;100.00
45050;BME280;61798;48.048;-1.928;2023-02-28T08:08:06;102094.91;;;-1.96;100.00
45050;BME280;61798;48.048;-1.928;2023-02-28T08:10:13;102100.31;;;-1.99;100.00
45050;BME280;61798;48.048;-1.928;2023-02-28T08:12:26;102058.28;;;-2.19;100.00
45050;BME280;61798;48.048;-1.928;2023-02-28T08:14:34;102101.94;;;-1.97;100.00
45050;BME280;61798;48.048;-1.928;2023-02-28T08:16:40;102064.88;;;-2.10;100.00
45050;BME280;61798;48.048;-1.928;2023-02-28T08:18:49;102086.28;;;-1.81;100.00
45050;BME280;61798;48.048;-1.928;2023-02-28T08:20:58;102103.66;;;-1.78;100.00
45050;BME280;61798;48.048;-1.928;2023-02-28T08:23:18;102084.41;;;-1.78;100.00
45050;BME280;61798;48.048;-1.928;2023-02-28T08:25:25;102065.41;;;-1.84;100.00
45050;BME280;61798;48.048;-1.928;2023-02-28T08:27:32;102112.06;;;-1.52;100.00
45050;BME280;61798;48.048;-1.928;2023-02-28T08:29:39;102052.97;;;-1.80;100.00
45050;BME280;61798;48.048;-1.928;2023-02-28T08:31:45;102110.38;;;-1.53;100.00
45050;BME280;61798;48.048;-1.928;2023-02-28T08:33:51;102079.47;;;-1.67;100.00
45050;BME280;61798;48.048;-1.928;2023-02-28T08:36:00;102102.69;;;-1.57;100.00
45050;BME280;61798;48.048;-1.928;2023-02-28T08:38:06;102097.44;;;-1.57;100.00
45050;BME280;61798;48.048;-1.928;2023-02-28T08:40:12;102088.84;;;-1.61;100.00
45050;BME280;61798;48.048;-1.928;2023-02-28T08:42:24;102109.97;;;-1.27;100.00
45050;BME280;61798;48.048;-1.928;2023-02-28T08:44:30;102102.72;;;-1.40;100.00
45050;BME280;61798;48.048;-1.928;2023-02-28T08:46:36;102106.13;;;-1.20;100.00
45050;BME280;61798;48.048;-1.928;2023-02-28T08:48:42;102086.59;;;-0.98;100.00
45050;BME280;61798;48.048;-1.928;2023-02-28T08:51:00;102109.84;;;-0.72;100.00
45050;BME280;61798;48.048;-1.928;2023-02-28T08:53:06;102084.75;;;-0.79;100.00
45050;BME280;61798;48.048;-1.928;2023-02-28T08:55:12;102086.22;;;-1.08;100.00
45050;BME280;61798;48.048;-1.928;2023-02-28T08:57:18;102029.00;;;-1.38;100.00
45050;BME280;61798;48.048;-1.928;2023-02-28T08:59:24;102097.56;;;-0.89;100.00
45050;BME280;61798;48.048;-1.928;2023-02-28T09:01:30;102101.19;;;-0.58;100.00
45050;BME280;61798;48.048;-1.928;2023-02-28T09:03:38;102066.53;;;-0.66;100.00
45050;BME280;61798;48.048;-1.928;2023-02-28T09:05:58;102092.53;;;-0.60;100.00
45050;BME280;61798;48.048;-1.928;2023-02-28T09:08:04;102081.50;;;-0.34;100.00
45050;BME280;61798;48.048;-1.928;2023-02-28T09:10:10;102087.41;;;-0.63;100.00
45050;BME280;61798;48.048;-1.928;2023-02-28T09:12:16;102063.75;;;-0.30;100.00
45050;BME280;61798;48.048;-1.928;2023-02-28T09:14:23;102064.41;;;-0.43;100.00
45050;BME280;61798;48.048;-1.928;2023-02-28T09:16:30;102095.09;;;-0.09;100.00
45050;BME280;61798;48.048;-1.928;2023-02-28T09:18:37;102068.16;;;-0.31;100.00
45050;BME280;61798;48.048;-1.928;2023-02-28T09:20:44;102054.09;;;0.01;100.00
45050;BME280;61798;48.048;-1.928;2023-02-28T09:22:50;102072.28;;;0.22;100.00
45050;BME280;61798;48.048;-1.928;2023-02-28T09:24:56;102089.22;;;0.18;100.00
45050;BME280;61798;48.048;-1.928;2023-02-28T09:27:02;102083.13;;;0.32;100.00
45050;BME280;61798;48.048;-1.928;2023-02-28T09:29:08;102086.97;;;0.26;100.00
45050;BME280;61798;48.048;-1.928;2023-02-28T09:31:17;102088.91;;;0.39;100.00
45050;BME280;61798;48.048;-1.928;2023-02-28T09:33:26;102071.63;;;0.02;100.00
45050;BME280;61798;48.048;-1.928;2023-02-28T09:35:32;102088.34;;;0.48;100.00
45050;BME280;61798;48.048;-1.928;2023-02-28T09:37:38;102094.50;;;0.49;100.00
45050;BME280;61798;48.048;-1.928;2023-02-28T09:39:44;102089.16;;;0.65;100.00
45050;BME280;61798;48.048;-1.928;2023-02-28T09:41:52;102076.53;;;0.56;100.00
45050;BME280;61798;48.048;-1.928;2023-02-28T09:44:01;102068.72;;;0.69;100.00
45050;BME280;61798;48.048;-1.928;2023-02-28T09:46:48;102092.00;;;0.62;100.00
45050;BME280;61798;48.048;-1.928;2023-02-28T09:49:02;102084.34;;;0.57;100.00
45050;BME280;61798;48.048;-1.928;2023-02-28T09:51:23;102087.72;;;1.05;100.00
45050;BME280;61798;48.048;-1.928;2023-02-28T09:53:34;102079.44;;;1.11;100.00
45050;BME280;61798;48.048;-1.928;2023-02-28T09:55:48;102062.91;;;1.08;100.00
45050;BME280;61798;48.048;-1.928;2023-02-28T09:57:56;102032.81;;;0.81;100.00
45050;BME280;61798;48.048;-1.928;2023-02-28T10:00:21;102062.25;;;1.04;100.00
45050;BME280;61798;48.048;-1.928;2023-02-28T10:02:39;102059.13;;;1.12;100.00
45050;BME280;61798;48.048;-1.928;2023-02-28T10:04:51;102058.31;;;1.11;100.00
45050;BME280;61798;48.048;-1.928;2023-02-28T10:07:06;102059.06;;;0.99;100.00
45050;BME280;61798;48.048;-1.928;2023-02-28T10:09:26;102069.81;;;1.67;100.00
45050;BME280;61798;48.048;-1.928;2023-02-28T10:11:35;102061.28;;;1.49;100.00
45050;BME280;61798;48.048;-1.928;2023-02-28T10:13:57;102064.00;;;1.62;100.00
45050;BME280;61798;48.048;-1.928;2023-02-28T10:18:50;102049.72;;;1.65;100.00
45050;BME280;61798;48.048;-1.928;2023-02-28T10:20:57;102054.03;;;1.81;100.00
45050;BME280;61798;48.048;-1.928;2023-02-28T10:23:19;102056.88;;;1.77;100.00
45050;BME280;61798;48.048;-1.928;2023-02-28T10:25:29;102057.09;;;1.87;100.00
45050;BME280;61798;48.048;-1.928;2023-02-28T10:27:35;102024.84;;;1.54;100.00
45050;BME280;61798;48.048;-1.928;2023-02-28T10:29:46;102055.63;;;1.83;100.00
45050;BME280;61798;48.048;-1.928;2023-02-28T10:31:53;102039.16;;;1.65;100.00
45050;BME280;61798;48.048;-1.928;2023-02-28T10:33:59;102027.72;;;1.64;100.00
45050;BME280;61798;48.048;-1.928;2023-02-28T10:36:05;102042.72;;;2.06;100.00
45050;BME280;61798;48.048;-1.928;2023-02-28T10:38:19;102045.91;;;2.25;100.00
45050;BME280;61798;48.048;-1.928;2023-02-28T10:40:32;102044.03;;;2.27;100.00
45050;BME280;61798;48.048;-1.928;2023-02-28T10:42:39;102038.28;;;2.20;100.00
45050;BME280;61798;48.048;-1.928;2023-02-28T10:44:45;101982.69;;;1.94;100.00
45050;BME280;61798;48.048;-1.928;2023-02-28T10:46:51;102044.38;;;1.94;100.00
45050;BME280;61798;48.048;-1.928;2023-02-28T10:49:03;102027.53;;;2.49;100.00
45050;BME280;61798;48.048;-1.928;2023-02-28T10:51:11;102007.34;;;2.61;100.00
45050;BME280;61798;48.048;-1.928;2023-02-28T10:55:34;101958.94;;;2.33;100.00
45050;BME280;61798;48.048;-1.928;2023-02-28T10:57:40;102003.63;;;2.64;100.00
45050;BME280;61798;48.048;-1.928;2023-02-28T10:59:52;102004.28;;;2.55;100.00
45050;BME280;61798;48.048;-1.928;2023-02-28T11:01:58;101943.41;;;2.41;97.97
45050;BME280;61798;48.048;-1.928;2023-02-28T11:06:35;101948.16;;;2.62;93.91
45050;BME280;61798;48.048;-1.928;2023-02-28T11:08:46;101976.84;;;2.82;91.64
45050;BME280;61798;48.048;-1.928;2023-02-28T11:10:59;101988.38;;;2.68;95.99
45050;BME280;61798;48.048;-1.928;2023-02-28T11:13:17;101988.47;;;2.79;95.85
45050;BME280;61798;48.048;-1.928;2023-02-28T11:15:34;101980.06;;;2.99;94.32
45050;BME280;61798;48.048;-1.928;2023-02-28T11:18:18;101971.78;;;3.03;88.56
45050;BME280;61798;48.048;-1.928;2023-02-28T11:20:33;101973.19;;;2.96;89.62
45050;BME280;61798;48.048;-1.928;2023-02-28T11:22:43;101971.88;;;3.15;88.01
45050;BME280;61798;48.048;-1.928;2023-02-28T11:24:55;101973.28;;;3.08;87.17
45050;BME280;61798;48.048;-1.928;2023-02-28T11:27:04;101982.44;;;2.77;92.62
45050;BME280;61798;48.048;-1.928;2023-02-28T11:29:23;101993.22;;;2.87;94.02
45050;BME280;61798;48.048;-1.928;2023-02-28T11:31:30;101980.28;;;2.95;91.99
45050;BME280;61798;48.048;-1.928;2023-02-28T11:33:43;101973.97;;;2.85;93.19
45050;BME280;61798;48.048;-1.928;2023-02-28T11:35:53;101961.97;;;3.05;93.82
45050;BME280;61798;48.048;-1.928;2023-02-28T11:38:00;101969.19;;;3.28;91.34
45050;BME280;61798;48.048;-1.928;2023-02-28T11:40:17;101969.44;;;3.12;92.24
45050;BME280;61798;48.048;-1.928;2023-02-28T11:56:48;101938.16;;;3.30;92.72
45050;BME280;61798;48.048;-1.928;2023-02-28T12:06:45;101955.56;;;3.46;96.34
45050;BME280;61798;48.048;-1.928;2023-02-28T12:12:15;101912.53;;;3.78;88.19
45050;BME280;61798;48.048;-1.928;2023-02-28T12:15:05;101931.63;;;3.95;91.58